Bartlett, NH (03812)

10:36 PM EDT on August 23, 2016 (GMT -0400)
APRSWXNET | | Change Station

Elev 839 ft 44.07 °N, 71.26 °W | Updated 30 minutes ago

Clear
Clear
61 °F
Feels Like 61 °F
N
0
Wind Variable Wind from WNW
Gusts 0.0 mph

Today
High -- | Low -- °F
--% Chance of Precip.
Yesterday
High -- | Low -- °F
Precip. -- in
Pressure 30.19 in
Visibility 10.0 miles
Clouds Clear
Dew Point 55 °F
Humidity 82%
Rainfall in
Snow Depth Not available.
5:58 AM 7:35 PM
Waning Gibbous, 62% visible
METAR KIZG 240154Z AUTO 00000KT 10SM CLR 18/11 A3020 RMK AO2 SLP224 T01830111
Pressure 30.19 in
Visibility 10.0 miles
Clouds Clear
Dew Point 55 °F
Humidity 82%
Rainfall in
Snow Depth Not available.
5:58 AM 7:35 PM
Waning Gibbous, 62% visible
METAR KIZG 240154Z AUTO 00000KT 10SM CLR 18/11 A3020 RMK AO2 SLP224 T01830111

10-Day Weather Forecast

Almanac

Astronomy

Aug. 23, 2016 Rise Set
Actual Time
Civil Twilight
Nautical Twilight
Astronomical Twilight
Moon
Length of Visible Light
Length of Day
Tomorrow will be .
, % of the Moon is Illuminated

Today's Extremes

State Highs State Lows

Community

WunderPhotos

Upload Photos

1,934,528 photos uploaded!

WunderBlog® & News

Nearby

Air Quality

  Air Quality AQ Index Pollutant
Not available.

Snow Depth

Station Depth Elevation

Earthquake Activity

City Distance Mag. Time & Date
Minimum magnitude displayed is 2.5.

Coastal Water Temperatures

Place Temperature

Stations

Nearby Weather Stations

Station Location Temp. Windchill Dew Point Humidity Wind Precip. Elev Updated Type
                   

Watches & Warnings

There are currently no watches in effect.